sensor_id;sensor_type;location;lat;lon;timestamp;pressure;altitude;pressure_sealevel;temperature;humidity
12963;BME280;6546;49.882;8.666;2023-07-13T00:00:54;99916.09;;;22.62;40.49
12963;BME280;6546;49.882;8.666;2023-07-13T00:03:33;99934.81;;;22.60;40.77
12963;BME280;6546;49.882;8.666;2023-07-13T00:06:01;99931.84;;;22.57;40.81
12963;BME280;6546;49.882;8.666;2023-07-13T00:08:31;99925.72;;;22.51;41.52
12963;BME280;6546;49.882;8.666;2023-07-13T00:11:06;99928.34;;;22.51;40.86
12963;BME280;6546;49.882;8.666;2023-07-13T00:13:36;99933.38;;;22.52;40.95
12963;BME280;6546;49.882;8.666;2023-07-13T00:16:08;99934.66;;;22.50;41.00
12963;BME280;6546;49.882;8.666;2023-07-13T00:18:36;99935.47;;;22.50;40.60
12963;BME280;6546;49.882;8.666;2023-07-13T00:21:04;99933.06;;;22.49;40.43
12963;BME280;6546;49.882;8.666;2023-07-13T00:23:31;99924.84;;;22.45;40.71
12963;BME280;6546;49.882;8.666;2023-07-13T00:25:59;99926.75;;;22.50;40.60
12963;BME280;6546;49.882;8.666;2023-07-13T00:28:29;99937.56;;;22.48;40.80
12963;BME280;6546;49.882;8.666;2023-07-13T00:30:56;99930.34;;;22.44;41.02
12963;BME280;6546;49.882;8.666;2023-07-13T00:33:23;99939.06;;;22.44;41.13
12963;BME280;6546;49.882;8.666;2023-07-13T00:35:50;99933.22;;;22.42;41.25
12963;BME280;6546;49.882;8.666;2023-07-13T00:41:22;99938.13;;;22.34;41.57
12963;BME280;6546;49.882;8.666;2023-07-13T00:43:50;99936.44;;;22.28;41.32
12963;BME280;6546;49.882;8.666;2023-07-13T00:46:23;99932.69;;;22.24;41.46
12963;BME280;6546;49.882;8.666;2023-07-13T00:48:51;99931.34;;;22.21;41.96
12963;BME280;6546;49.882;8.666;2023-07-13T00:51:21;99935.81;;;22.21;41.36
12963;BME280;6546;49.882;8.666;2023-07-13T00:53:51;99940.88;;;22.22;41.72
12963;BME280;6546;49.882;8.666;2023-07-13T00:56:19;99944.75;;;22.20;41.29
12963;BME280;6546;49.882;8.666;2023-07-13T00:58:46;99940.94;;;22.11;41.59
12963;BME280;6546;49.882;8.666;2023-07-13T01:01:14;99946.78;;;21.96;42.48
12963;BME280;6546;49.882;8.666;2023-07-13T01:03:41;99947.09;;;22.00;41.92
12963;BME280;6546;49.882;8.666;2023-07-13T01:06:08;99941.25;;;21.97;42.01
12963;BME280;6546;49.882;8.666;2023-07-13T01:08:34;99935.44;;;21.95;42.37
12963;BME280;6546;49.882;8.666;2023-07-13T01:11:01;99937.72;;;21.92;42.43
12963;BME280;6546;49.882;8.666;2023-07-13T01:13:27;99944.03;;;21.91;42.08
12963;BME280;6546;49.882;8.666;2023-07-13T01:15:56;99945.22;;;21.83;42.52
12963;BME280;6546;49.882;8.666;2023-07-13T01:18:27;99942.47;;;21.78;42.97
12963;BME280;6546;49.882;8.666;2023-07-13T01:20:57;99939.78;;;21.73;42.89
12963;BME280;6546;49.882;8.666;2023-07-13T01:23:25;99939.78;;;21.73;43.31
12963;BME280;6546;49.882;8.666;2023-07-13T01:25:52;99942.00;;;21.65;43.24
12963;BME280;6546;49.882;8.666;2023-07-13T01:28:21;99940.41;;;21.64;42.84
12963;BME280;6546;49.882;8.666;2023-07-13T01:30:48;99943.25;;;21.62;43.17
12963;BME280;6546;49.882;8.666;2023-07-13T01:33:16;99937.44;;;21.60;43.31
12963;BME280;6546;49.882;8.666;2023-07-13T01:35:44;99944.13;;;21.51;43.43
12963;BME280;6546;49.882;8.666;2023-07-13T01:38:14;99943.00;;;21.47;43.84
12963;BME280;6546;49.882;8.666;2023-07-13T01:40:41;99949.88;;;21.48;43.89
12963;BME280;6546;49.882;8.666;2023-07-13T01:43:09;99948.25;;;21.47;43.66
12963;BME280;6546;49.882;8.666;2023-07-13T01:45:35;99947.72;;;21.45;43.91
12963;BME280;6546;49.882;8.666;2023-07-13T01:48:02;99948.63;;;21.39;44.09
12963;BME280;6546;49.882;8.666;2023-07-13T01:50:29;99951.16;;;21.34;44.26
12963;BME280;6546;49.882;8.666;2023-07-13T01:52:56;99953.25;;;21.32;44.31
12963;BME280;6546;49.882;8.666;2023-07-13T01:55:23;99949.47;;;21.28;44.37
12963;BME280;6546;49.882;8.666;2023-07-13T01:57:50;99952.59;;;21.25;44.02
12963;BME280;6546;49.882;8.666;2023-07-13T02:00:18;99949.84;;;21.20;44.64
12963;BME280;6546;49.882;8.666;2023-07-13T02:02:45;99965.06;;;21.18;44.98
12963;BME280;6546;49.882;8.666;2023-07-13T02:05:11;99963.13;;;21.13;45.12
12963;BME280;6546;49.882;8.666;2023-07-13T02:07:38;99971.84;;;21.14;44.77
12963;BME280;6546;49.882;8.666;2023-07-13T02:10:06;99963.38;;;21.12;44.57
12963;BME280;6546;49.882;8.666;2023-07-13T02:12:34;99964.28;;;21.06;45.39
12963;BME280;6546;49.882;8.666;2023-07-13T02:15:01;99969.91;;;21.09;44.81
12963;BME280;6546;49.882;8.666;2023-07-13T02:17:28;99965.09;;;21.06;45.09
12963;BME280;6546;49.882;8.666;2023-07-13T02:19:54;99973.22;;;21.05;45.58
12963;BME280;6546;49.882;8.666;2023-07-13T02:22:21;99976.31;;;21.02;45.56
12963;BME280;6546;49.882;8.666;2023-07-13T02:24:48;99964.06;;;20.95;45.31
12963;BME280;6546;49.882;8.666;2023-07-13T02:27:14;99978.25;;;20.94;45.68
12963;BME280;6546;49.882;8.666;2023-07-13T02:29:42;99986.75;;;20.97;45.52
12963;BME280;6546;49.882;8.666;2023-07-13T02:32:09;99984.66;;;20.99;45.46
12963;BME280;6546;49.882;8.666;2023-07-13T02:34:36;99991.41;;;20.94;45.70
12963;BME280;6546;49.882;8.666;2023-07-13T02:37:03;99989.94;;;20.99;45.50
12963;BME280;6546;49.882;8.666;2023-07-13T02:39:30;99988.91;;;21.00;45.57
12963;BME280;6546;49.882;8.666;2023-07-13T02:41:58;99989.81;;;21.05;45.37
12963;BME280;6546;49.882;8.666;2023-07-13T02:44:24;99994.06;;;21.06;45.15
12963;BME280;6546;49.882;8.666;2023-07-13T02:46:53;100000.34;;;21.05;45.07
12963;BME280;6546;49.882;8.666;2023-07-13T02:49:19;99986.94;;;21.07;45.09
12963;BME280;6546;49.882;8.666;2023-07-13T02:51:46;99999.31;;;21.06;45.51
12963;BME280;6546;49.882;8.666;2023-07-13T02:54:12;100000.69;;;21.09;45.41
12963;BME280;6546;49.882;8.666;2023-07-13T02:56:40;99993.59;;;20.98;45.29
12963;BME280;6546;49.882;8.666;2023-07-13T02:59:08;99985.13;;;20.95;44.83
12963;BME280;6546;49.882;8.666;2023-07-13T03:01:35;99994.19;;;20.88;45.46
12963;BME280;6546;49.882;8.666;2023-07-13T03:04:03;99994.19;;;20.88;45.02
12963;BME280;6546;49.882;8.666;2023-07-13T03:06:30;99989.94;;;20.75;45.58
12963;BME280;6546;49.882;8.666;2023-07-13T03:08:57;99993.28;;;20.82;45.53
12963;BME280;6546;49.882;8.666;2023-07-13T03:11:25;99995.22;;;20.75;46.11
12963;BME280;6546;49.882;8.666;2023-07-13T03:13:52;99995.78;;;20.66;46.55
12963;BME280;6546;49.882;8.666;2023-07-13T03:16:18;99993.88;;;20.61;46.25
12963;BME280;6546;49.882;8.666;2023-07-13T03:18:45;100000.16;;;20.60;45.69
12963;BME280;6546;49.882;8.666;2023-07-13T03:21:14;99992.72;;;20.57;45.95
12963;BME280;6546;49.882;8.666;2023-07-13T03:23:41;99995.34;;;20.57;45.88
12963;BME280;6546;49.882;8.666;2023-07-13T03:26:10;99997.97;;;20.57;46.26
12963;BME280;6546;49.882;8.666;2023-07-13T03:28:38;100001.16;;;20.59;46.40
12963;BME280;6546;49.882;8.666;2023-07-13T03:31:07;99999.56;;;20.58;46.26
12963;BME280;6546;49.882;8.666;2023-07-13T03:33:34;100002.78;;;20.60;46.21
12963;BME280;6546;49.882;8.666;2023-07-13T03:36:01;100003.25;;;20.57;46.09
12963;BME280;6546;49.882;8.666;2023-07-13T03:38:29;100003.91;;;20.53;46.14
12963;BME280;6546;49.882;8.666;2023-07-13T03:40:56;100005.75;;;20.52;46.38
12963;BME280;6546;49.882;8.666;2023-07-13T03:43:22;100007.25;;;20.48;46.38
12963;BME280;6546;49.882;8.666;2023-07-13T03:45:49;100009.88;;;20.48;46.68
12963;BME280;6546;49.882;8.666;2023-07-13T03:48:16;100008.03;;;20.49;46.88
12963;BME280;6546;49.882;8.666;2023-07-13T03:50:42;100015.59;;;20.45;46.92
12963;BME280;6546;49.882;8.666;2023-07-13T03:53:09;100015.91;;;20.49;46.57
12963;BME280;6546;49.882;8.666;2023-07-13T03:55:37;100004.63;;;20.48;46.56
12963;BME280;6546;49.882;8.666;2023-07-13T03:58:28;100012.97;;;20.45;46.70
12963;BME280;6546;49.882;8.666;2023-07-13T04:00:56;100020.41;;;20.48;46.78
12963;BME280;6546;49.882;8.666;2023-07-13T04:03:22;100011.56;;;20.42;47.12
12963;BME280;6546;49.882;8.666;2023-07-13T04:05:49;100013.06;;;20.50;46.62
12963;BME280;6546;49.882;8.666;2023-07-13T04:08:16;100013.53;;;20.47;46.76
12963;BME280;6546;49.882;8.666;2023-07-13T04:10:44;100010.66;;;20.49;46.83
12963;BME280;6546;49.882;8.666;2023-07-13T04:13:11;100021.06;;;20.55;45.51
12963;BME280;6546;49.882;8.666;2023-07-13T04:15:38;100015.13;;;20.48;45.93
12963;BME280;6546;49.882;8.666;2023-07-13T04:18:05;100007.81;;;20.38;46.54
12963;BME280;6546;49.882;8.666;2023-07-13T04:20:31;100019.69;;;20.41;46.60
12963;BME280;6546;49.882;8.666;2023-07-13T04:22:58;100015.69;;;20.38;47.31
12963;BME280;6546;49.882;8.666;2023-07-13T04:25:25;100013.97;;;20.44;47.05
12963;BME280;6546;49.882;8.666;2023-07-13T04:27:53;100018.09;;;20.40;46.69
12963;BME280;6546;49.882;8.666;2023-07-13T04:30:20;100024.50;;;20.44;46.77
12963;BME280;6546;49.882;8.666;2023-07-13T04:32:46;100021.41;;;20.47;46.99
12963;BME280;6546;49.882;8.666;2023-07-13T04:35:13;100025.53;;;20.43;47.14
12963;BME280;6546;49.882;8.666;2023-07-13T04:37:40;100025.97;;;20.40;47.08
12963;BME280;6546;49.882;8.666;2023-07-13T04:40:08;100031.22;;;20.40;47.08
12963;BME280;6546;49.882;8.666;2023-07-13T04:42:37;100045.75;;;20.42;46.59
12963;BME280;6546;49.882;8.666;2023-07-13T04:45:07;100041.31;;;20.43;46.59
12963;BME280;6546;49.882;8.666;2023-07-13T04:47:33;100040.75;;;20.41;46.69
12963;BME280;6546;49.882;8.666;2023-07-13T04:50:00;100040.28;;;20.44;46.62
12963;BME280;6546;49.882;8.666;2023-07-13T04:52:27;100045.41;;;20.39;47.12
12963;BME280;6546;49.882;8.666;2023-07-13T04:54:53;100057.31;;;20.41;46.69
12963;BME280;6546;49.882;8.666;2023-07-13T04:57:20;100052.72;;;20.49;46.69
12963;BME280;6546;49.882;8.666;2023-07-13T04:59:46;100054.91;;;20.40;47.14
12963;BME280;6546;49.882;8.666;2023-07-13T05:02:14;100056.88;;;20.45;46.98
12963;BME280;6546;49.882;8.666;2023-07-13T05:04:41;100053.91;;;20.53;46.68
12963;BME280;6546;49.882;8.666;2023-07-13T05:07:08;100050.25;;;20.54;46.56
12963;BME280;6546;49.882;8.666;2023-07-13T05:09:34;100052.19;;;20.58;46.07
12963;BME280;6546;49.882;8.666;2023-07-13T05:12:01;100043.81;;;20.50;45.43
12963;BME280;6546;49.882;8.666;2023-07-13T05:14:28;100061.94;;;20.58;45.48
12963;BME280;6546;49.882;8.666;2023-07-13T05:16:55;100061.94;;;20.58;46.34
12963;BME280;6546;49.882;8.666;2023-07-13T05:19:23;100060.66;;;20.60;46.56
12963;BME280;6546;49.882;8.666;2023-07-13T05:21:50;100053.78;;;20.59;45.99
12963;BME280;6546;49.882;8.666;2023-07-13T05:24:17;100051.28;;;20.64;46.20
12963;BME280;6546;49.882;8.666;2023-07-13T05:26:43;100060.31;;;20.68;46.12
12963;BME280;6546;49.882;8.666;2023-07-13T05:29:10;100054.03;;;20.69;46.07
12963;BME280;6546;49.882;8.666;2023-07-13T05:31:37;100062.72;;;20.70;46.42
12963;BME280;6546;49.882;8.666;2023-07-13T05:34:03;100066.41;;;20.80;45.33
12963;BME280;6546;49.882;8.666;2023-07-13T05:36:32;100070.16;;;20.84;45.43
12963;BME280;6546;49.882;8.666;2023-07-13T05:38:58;100062.50;;;20.94;45.43
12963;BME280;6546;49.882;8.666;2023-07-13T05:41:25;100059.06;;;21.06;45.35
12963;BME280;6546;49.882;8.666;2023-07-13T05:43:51;100068.25;;;21.66;44.81
12963;BME280;6546;49.882;8.666;2023-07-13T05:46:18;100066.47;;;22.73;40.89
12963;BME280;6546;49.882;8.666;2023-07-13T05:48:44;100062.56;;;23.14;39.82
12963;BME280;6546;49.882;8.666;2023-07-13T05:51:11;100060.50;;;23.16;39.75
12963;BME280;6546;49.882;8.666;2023-07-13T05:53:39;100067.16;;;23.02;40.52
12963;BME280;6546;49.882;8.666;2023-07-13T05:56:06;100070.94;;;22.89;40.37
12963;BME280;6546;49.882;8.666;2023-07-13T05:58:33;100068.38;;;22.94;39.90
12963;BME280;6546;49.882;8.666;2023-07-13T06:01:05;100069.09;;;23.07;39.92
12963;BME280;6546;49.882;8.666;2023-07-13T06:03:32;100067.84;;;23.14;40.45
12963;BME280;6546;49.882;8.666;2023-07-13T06:05:59;100075.31;;;23.39;38.71
12963;BME280;6546;49.882;8.666;2023-07-13T06:08:27;100064.28;;;23.42;38.08
12963;BME280;6546;49.882;8.666;2023-07-13T06:11:01;100070.66;;;23.46;37.37
12963;BME280;6546;49.882;8.666;2023-07-13T06:13:28;100072.41;;;23.57;37.19
12963;BME280;6546;49.882;8.666;2023-07-13T06:15:54;100076.16;;;24.10;36.73
12963;BME280;6546;49.882;8.666;2023-07-13T06:18:21;100078.28;;;25.60;34.28
12963;BME280;6546;49.882;8.666;2023-07-13T06:20:48;100079.50;;;27.75;30.85
12963;BME280;6546;49.882;8.666;2023-07-13T06:23:14;100097.06;;;30.19;26.52
12963;BME280;6546;49.882;8.666;2023-07-13T06:25:41;100092.88;;;32.59;23.14
12963;BME280;6546;49.882;8.666;2023-07-13T06:28:10;100100.88;;;34.46;20.46
12963;BME280;6546;49.882;8.666;2023-07-13T06:30:38;100109.47;;;35.61;18.80
12963;BME280;6546;49.882;8.666;2023-07-13T06:33:04;100098.28;;;36.33;18.35
12963;BME280;6546;49.882;8.666;2023-07-13T06:35:31;100103.03;;;36.94;16.91
12963;BME280;6546;49.882;8.666;2023-07-13T06:37:59;100102.69;;;37.44;17.00
12963;BME280;6546;49.882;8.666;2023-07-13T06:40:25;100106.53;;;37.67;16.73
12963;BME280;6546;49.882;8.666;2023-07-13T06:42:54;100117.00;;;38.08;16.51
12963;BME280;6546;49.882;8.666;2023-07-13T06:45:22;100110.06;;;37.95;16.03
12963;BME280;6546;49.882;8.666;2023-07-13T06:47:48;100111.06;;;38.03;16.17
12963;BME280;6546;49.882;8.666;2023-07-13T06:50:15;100115.03;;;37.81;16.92
12963;BME280;6546;49.882;8.666;2023-07-13T06:52:42;100117.88;;;37.72;17.08
12963;BME280;6546;49.882;8.666;2023-07-13T06:55:09;100120.09;;;37.82;17.06
12963;BME280;6546;49.882;8.666;2023-07-13T06:57:35;100116.53;;;37.66;16.62
12963;BME280;6546;49.882;8.666;2023-07-13T07:00:02;100103.59;;;37.35;16.89
12963;BME280;6546;49.882;8.666;2023-07-13T07:02:30;100121.19;;;37.05;17.28
12963;BME280;6546;49.882;8.666;2023-07-13T07:04:57;100127.28;;;36.57;18.07
12963;BME280;6546;49.882;8.666;2023-07-13T07:07:24;100118.81;;;36.26;18.19
12963;BME280;6546;49.882;8.666;2023-07-13T07:09:50;100115.69;;;35.83;18.68
12963;BME280;6546;49.882;8.666;2023-07-13T07:12:17;100119.69;;;35.47;20.01
12963;BME280;6546;49.882;8.666;2023-07-13T07:14:43;100120.50;;;35.10;19.69
12963;BME280;6546;49.882;8.666;2023-07-13T07:17:10;100120.00;;;34.70;19.90
12963;BME280;6546;49.882;8.666;2023-07-13T07:19:38;100120.69;;;34.24;20.83
12963;BME280;6546;49.882;8.666;2023-07-13T07:22:05;100127.44;;;33.87;21.45
12963;BME280;6546;49.882;8.666;2023-07-13T07:24:32;100128.56;;;33.30;22.07
12963;BME280;6546;49.882;8.666;2023-07-13T07:26:59;100120.56;;;33.07;22.22
12963;BME280;6546;49.882;8.666;2023-07-13T07:29:25;100119.72;;;32.67;23.16
12963;BME280;6546;49.882;8.666;2023-07-13T07:31:53;100120.00;;;32.21;23.21
12963;BME280;6546;49.882;8.666;2023-07-13T07:34:20;100123.06;;;31.93;24.01
12963;BME280;6546;49.882;8.666;2023-07-13T07:36:48;100125.69;;;31.57;24.08
12963;BME280;6546;49.882;8.666;2023-07-13T07:39:14;100122.81;;;31.26;24.55
12963;BME280;6546;49.882;8.666;2023-07-13T07:41:41;100123.59;;;30.67;26.37
12963;BME280;6546;49.882;8.666;2023-07-13T07:44:08;100126.69;;;30.42;26.16
12963;BME280;6546;49.882;8.666;2023-07-13T07:46:36;100124.81;;;30.05;26.93
12963;BME280;6546;49.882;8.666;2023-07-13T07:49:02;100119.84;;;29.75;26.89
12963;BME280;6546;49.882;8.666;2023-07-13T07:51:30;100125.78;;;29.48;27.76
12963;BME280;6546;49.882;8.666;2023-07-13T07:54:08;100121.13;;;29.35;27.77
12963;BME280;6546;49.882;8.666;2023-07-13T07:56:35;100126.25;;;29.02;27.67
12963;BME280;6546;49.882;8.666;2023-07-13T07:59:01;100122.34;;;28.61;29.25
12963;BME280;6546;49.882;8.666;2023-07-13T08:01:28;100117.34;;;28.15;29.36
12963;BME280;6546;49.882;8.666;2023-07-13T08:03:55;100117.94;;;28.02;30.42
12963;BME280;6546;49.882;8.666;2023-07-13T08:06:21;100126.75;;;27.98;30.36
12963;BME280;6546;49.882;8.666;2023-07-13T08:08:48;100119.03;;;27.96;30.50
12963;BME280;6546;49.882;8.666;2023-07-13T08:11:16;100121.66;;;28.01;31.11
12963;BME280;6546;49.882;8.666;2023-07-13T08:13:43;100128.06;;;28.05;30.25
12963;BME280;6546;49.882;8.666;2023-07-13T08:16:10;100124.34;;;28.06;30.87
12963;BME280;6546;49.882;8.666;2023-07-13T08:18:37;100133.38;;;28.05;30.45
12963;BME280;6546;49.882;8.666;2023-07-13T08:21:04;100126.44;;;28.09;29.77
12963;BME280;6546;49.882;8.666;2023-07-13T08:23:31;100125.31;;;28.21;30.33
12963;BME280;6546;49.882;8.666;2023-07-13T08:25:57;100123.16;;;28.23;29.48
12963;BME280;6546;49.882;8.666;2023-07-13T08:28:28;100125.53;;;28.24;30.26
12963;BME280;6546;49.882;8.666;2023-07-13T08:30:55;100122.66;;;28.15;30.11
12963;BME280;6546;49.882;8.666;2023-07-13T08:33:22;100120.59;;;28.07;30.34
12963;BME280;6546;49.882;8.666;2023-07-13T08:35:49;100115.81;;;28.04;31.77
12963;BME280;6546;49.882;8.666;2023-07-13T08:38:17;100109.69;;;28.04;29.72
12963;BME280;6546;49.882;8.666;2023-07-13T08:40:50;100112.56;;;28.12;31.42
12963;BME280;6546;49.882;8.666;2023-07-13T08:43:20;100115.25;;;28.12;30.79
12963;BME280;6546;49.882;8.666;2023-07-13T08:45:54;100114.72;;;28.10;30.66
12963;BME280;6546;49.882;8.666;2023-07-13T08:48:26;100124.78;;;28.19;30.89
12963;BME280;6546;49.882;8.666;2023-07-13T08:50:57;100115.13;;;28.28;29.98
12963;BME280;6546;49.882;8.666;2023-07-13T08:53:25;100112.94;;;28.40;30.31
12963;BME280;6546;49.882;8.666;2023-07-13T08:55:58;100103.28;;;28.44;29.89
12963;BME280;6546;49.882;8.666;2023-07-13T08:58:25;100103.25;;;28.49;30.42
12963;BME280;6546;49.882;8.666;2023-07-13T09:00:59;100112.78;;;28.55;29.95
12963;BME280;6546;49.882;8.666;2023-07-13T09:03:34;100121.97;;;28.39;29.81
12963;BME280;6546;49.882;8.666;2023-07-13T09:06:04;100118.91;;;28.22;29.06
12963;BME280;6546;49.882;8.666;2023-07-13T09:08:43;100117.91;;;28.12;29.70
12963;BME280;6546;49.882;8.666;2023-07-13T09:11:22;100111.81;;;28.02;29.61
12963;BME280;6546;49.882;8.666;2023-07-13T09:13:55;100120.94;;;27.86;29.42
12963;BME280;6546;49.882;8.666;2023-07-13T09:16:26;100118.88;;;27.73;30.12
12963;BME280;6546;49.882;8.666;2023-07-13T09:18:56;100121.03;;;27.71;29.79
12963;BME280;6546;49.882;8.666;2023-07-13T09:21:29;100108.31;;;27.62;29.90
12963;BME280;6546;49.882;8.666;2023-07-13T09:24:26;100108.09;;;27.39;30.29
12963;BME280;6546;49.882;8.666;2023-07-13T09:26:55;100114.47;;;27.43;31.58
12963;BME280;6546;49.882;8.666;2023-07-13T09:29:27;100117.41;;;27.36;30.46
12963;BME280;6546;49.882;8.666;2023-07-13T09:32:00;100114.22;;;27.39;29.62
12963;BME280;6546;49.882;8.666;2023-07-13T09:34:27;100117.94;;;27.38;30.95
12963;BME280;6546;49.882;8.666;2023-07-13T09:36:56;100105.44;;;27.34;31.58
12963;BME280;6546;49.882;8.666;2023-07-13T09:39:25;100108.34;;;27.47;29.41
12963;BME280;6546;49.882;8.666;2023-07-13T09:41:57;100116.84;;;27.54;30.72
12963;BME280;6546;49.882;8.666;2023-07-13T09:44:29;100111.72;;;27.68;30.22
12963;BME280;6546;49.882;8.666;2023-07-13T09:46:58;100110.34;;;27.81;30.09
12963;BME280;6546;49.882;8.666;2023-07-13T09:49:25;100107.44;;;27.77;29.91
12963;BME280;6546;49.882;8.666;2023-07-13T09:51:58;100110.63;;;27.74;29.92
12963;BME280;6546;49.882;8.666;2023-07-13T09:54:26;100115.69;;;27.71;28.66
12963;BME280;6546;49.882;8.666;2023-07-13T09:56:56;100103.47;;;27.70;29.07
12963;BME280;6546;49.882;8.666;2023-07-13T09:59:27;100107.47;;;27.72;28.69
12963;BME280;6546;49.882;8.666;2023-07-13T10:01:55;100105.59;;;27.68;29.33
12963;BME280;6546;49.882;8.666;2023-07-13T10:04:31;100109.66;;;27.55;29.15
12963;BME280;6546;49.882;8.666;2023-07-13T10:07:05;100103.31;;;27.46;30.36
12963;BME280;6546;49.882;8.666;2023-07-13T10:09:32;100108.09;;;27.49;29.93
12963;BME280;6546;49.882;8.666;2023-07-13T10:11:59;100113.41;;;27.49;30.09
12963;BME280;6546;49.882;8.666;2023-07-13T10:14:27;100111.78;;;27.53;30.01
12963;BME280;6546;49.882;8.666;2023-07-13T10:16:58;100110.75;;;27.44;30.59
12963;BME280;6546;49.882;8.666;2023-07-13T10:19:31;100105.19;;;27.45;28.29
12963;BME280;6546;49.882;8.666;2023-07-13T10:22:00;100106.47;;;27.53;30.68
12963;BME280;6546;49.882;8.666;2023-07-13T10:24:30;100098.97;;;27.60;29.54
12963;BME280;6546;49.882;8.666;2023-07-13T10:27:17;100105.09;;;27.60;30.95
12963;BME280;6546;49.882;8.666;2023-07-13T10:29:47;100104.88;;;27.47;27.98
12963;BME280;6546;49.882;8.666;2023-07-13T10:32:14;100105.50;;;27.24;28.33
12963;BME280;6546;49.882;8.666;2023-07-13T10:34:44;100106.06;;;27.00;29.36
12963;BME280;6546;49.882;8.666;2023-07-13T10:37:19;100108.22;;;26.83;28.89
12963;BME280;6546;49.882;8.666;2023-07-13T10:39:47;100109.25;;;26.72;30.38
12963;BME280;6546;49.882;8.666;2023-07-13T10:42:28;100097.31;;;26.75;30.78
12963;BME280;6546;49.882;8.666;2023-07-13T10:44:55;100102.66;;;26.85;31.22
12963;BME280;6546;49.882;8.666;2023-07-13T10:47:22;100094.13;;;26.83;30.10
12963;BME280;6546;49.882;8.666;2023-07-13T10:49:56;100092.53;;;26.87;30.45
12963;BME280;6546;49.882;8.666;2023-07-13T10:52:52;100092.78;;;26.80;30.66
12963;BME280;6546;49.882;8.666;2023-07-13T10:55:37;100104.47;;;26.79;30.51
12963;BME280;6546;49.882;8.666;2023-07-13T10:58:13;100101.53;;;26.76;29.84
12963;BME280;6546;49.882;8.666;2023-07-13T11:00:46;100092.78;;;26.75;31.19
12963;BME280;6546;49.882;8.666;2023-07-13T11:03:16;100101.03;;;26.89;30.66
12963;BME280;6546;49.882;8.666;2023-07-13T11:05:48;100110.06;;;26.93;29.61
12963;BME280;6546;49.882;8.666;2023-07-13T11:08:20;100091.72;;;26.86;30.25
12963;BME280;6546;49.882;8.666;2023-07-13T11:10:51;100098.13;;;26.90;30.66
12963;BME280;6546;49.882;8.666;2023-07-13T11:13:58;100101.03;;;27.04;29.29
12963;BME280;6546;49.882;8.666;2023-07-13T11:16:36;100097.53;;;27.08;29.74
12963;BME280;6546;49.882;8.666;2023-07-13T11:22:16;100089.88;;;26.87;29.43
12963;BME280;6546;49.882;8.666;2023-07-13T11:24:49;100094.38;;;26.76;30.75
12963;BME280;6546;49.882;8.666;2023-07-13T11:27:36;100085.59;;;26.76;31.16
12963;BME280;6546;49.882;8.666;2023-07-13T11:30:08;100080.56;;;26.74;29.59
12963;BME280;6546;49.882;8.666;2023-07-13T11:32:36;100084.81;;;26.70;29.90
12963;BME280;6546;49.882;8.666;2023-07-13T11:35:02;100084.31;;;26.83;28.72
12963;BME280;6546;49.882;8.666;2023-07-13T11:37:31;100081.88;;;27.07;29.31
12963;BME280;6546;49.882;8.666;2023-07-13T11:39:58;100078.94;;;27.13;28.67
12963;BME280;6546;49.882;8.666;2023-07-13T11:42:25;100075.16;;;27.25;28.65
12963;BME280;6546;49.882;8.666;2023-07-13T11:44:52;100068.47;;;27.37;30.32
12963;BME280;6546;49.882;8.666;2023-07-13T11:47:22;100072.41;;;27.50;28.74
12963;BME280;6546;49.882;8.666;2023-07-13T11:49:52;100071.81;;;27.63;27.71
12963;BME280;6546;49.882;8.666;2023-07-13T11:52:22;100068.31;;;27.78;28.88
12963;BME280;6546;49.882;8.666;2023-07-13T11:54:53;100066.97;;;27.80;28.41
12963;BME280;6546;49.882;8.666;2023-07-13T11:57:25;100074.44;;;27.73;28.45
12963;BME280;6546;49.882;8.666;2023-07-13T11:59:53;100065.50;;;27.59;28.80
12963;BME280;6546;49.882;8.666;2023-07-13T12:02:27;100075.63;;;27.52;28.40
12963;BME280;6546;49.882;8.666;2023-07-13T12:04:55;100074.78;;;27.61;29.12
12963;BME280;6546;49.882;8.666;2023-07-13T12:07:22;100068.09;;;27.64;27.03
12963;BME280;6546;49.882;8.666;2023-07-13T12:09:50;100074.97;;;27.75;27.04
12963;BME280;6546;49.882;8.666;2023-07-13T12:12:18;100067.44;;;27.87;27.04
12963;BME280;6546;49.882;8.666;2023-07-13T12:14:45;100070.56;;;27.99;27.63
12963;BME280;6546;49.882;8.666;2023-07-13T12:17:19;100069.72;;;28.09;28.73
12963;BME280;6546;49.882;8.666;2023-07-13T12:19:47;100065.13;;;28.20;27.86
12963;BME280;6546;49.882;8.666;2023-07-13T12:22:16;100070.97;;;28.22;26.00
12963;BME280;6546;49.882;8.666;2023-07-13T12:24:44;100074.97;;;28.19;28.27
12963;BME280;6546;49.882;8.666;2023-07-13T12:27:19;100074.22;;;28.13;27.15
12963;BME280;6546;49.882;8.666;2023-07-13T12:29:52;100068.66;;;28.10;26.02
12963;BME280;6546;49.882;8.666;2023-07-13T12:32:20;100076.44;;;27.96;27.26
12963;BME280;6546;49.882;8.666;2023-07-13T12:34:53;100085.38;;;27.72;27.16
12963;BME280;6546;49.882;8.666;2023-07-13T12:37:20;100076.44;;;27.52;27.30
12963;BME280;6546;49.882;8.666;2023-07-13T12:39:48;100086.81;;;27.39;27.45
12963;BME280;6546;49.882;8.666;2023-07-13T12:42:23;100085.25;;;27.33;27.58
12963;BME280;6546;49.882;8.666;2023-07-13T12:44:53;100088.44;;;27.25;28.22
12963;BME280;6546;49.882;8.666;2023-07-13T12:47:21;100095.41;;;27.16;28.85
12963;BME280;6546;49.882;8.666;2023-07-13T12:49:49;100096.72;;;27.08;29.14
12963;BME280;6546;49.882;8.666;2023-07-13T12:52:19;100094.91;;;26.98;27.50
12963;BME280;6546;49.882;8.666;2023-07-13T12:54:53;100086.94;;;26.93;28.71
12963;BME280;6546;49.882;8.666;2023-07-13T12:57:24;100096.47;;;27.04;29.52
12963;BME280;6546;49.882;8.666;2023-07-13T12:59:52;100098.06;;;27.16;29.81
12963;BME280;6546;49.882;8.666;2023-07-13T13:02:29;100093.00;;;27.19;29.29
12963;BME280;6546;49.882;8.666;2023-07-13T13:04:56;100101.22;;;27.18;27.98
12963;BME280;6546;49.882;8.666;2023-07-13T13:07:24;100103.38;;;27.16;29.44
12963;BME280;6546;49.882;8.666;2023-07-13T13:09:51;100099.13;;;27.09;28.86
12963;BME280;6546;49.882;8.666;2023-07-13T13:12:18;100110.84;;;27.03;29.07
12963;BME280;6546;49.882;8.666;2023-07-13T13:14:46;100110.31;;;27.06;29.53
12963;BME280;6546;49.882;8.666;2023-07-13T13:17:18;100111.66;;;27.04;28.95